Time;durP1;ratioP1;P1;durP2;ratioP2;P2;SDS_P1;SDS_P2;PMS_P1;PMS_P2;Temp;Humidity;BMP_temperature;BMP_pressure;BME280_temperature;BME280_humidity;BME280_pressure;Samples;Min_cycle;Max_cycle;Signal;HPM_P1;HPM_P2
2022/05/20 00:00:18;;;;;;;28.00;26.20;;;20.90;81.90;;;;;;5077848;28;20450;-72
2022/05/20 00:02:46;;;;;;;29.20;27.40;;;20.80;82.10;;;;;;5072146;28;20453;-72
2022/05/20 00:05:13;;;;;;;28.10;26.40;;;20.80;82.40;;;;;;5099547;28;20983;-72
2022/05/20 00:07:40;;;;;;;28.57;26.67;;;20.70;82.20;;;;;;5077342;28;20491;-72
2022/05/20 00:10:08;;;;;;;28.80;27.10;;;20.70;82.10;;;;;;5076841;28;20458;-72
2022/05/20 00:12:36;;;;;;;27.40;25.80;;;20.70;81.90;;;;;;5073937;28;21275;-72
2022/05/20 00:15:06;;;;;;;28.20;26.50;;;20.70;81.90;;;;;;5088442;28;20514;-72
2022/05/20 00:17:33;;;;;;;28.50;26.70;;;20.70;82.10;;;;;;5077021;28;20534;-72
2022/05/20 00:20:01;;;;;;;27.80;26.17;;;20.60;82.40;;;;;;5073941;28;20862;-72
2022/05/20 00:22:28;;;;;;;28.17;26.47;;;20.60;82.60;;;;;;5081910;28;20467;-72
2022/05/20 00:27:39;;;;;;;29.40;27.53;;;20.50;83.10;;;;;;5076392;28;20473;-72
2022/05/20 00:30:08;;;;;;;29.17;27.40;;;20.50;83.20;;;;;;5076091;28;21193;-71
2022/05/20 00:32:35;;;;;;;28.57;26.70;;;20.50;83.50;;;;;;5079597;28;20497;-72
2022/05/20 00:35:02;;;;;;;28.77;26.77;;;20.40;83.70;;;;;;5073316;28;20486;-71
2022/05/20 00:37:29;;;;;;;29.40;27.40;;;20.40;84.10;;;;;;5066272;28;20465;-72
2022/05/20 00:39:56;;;;;;;28.30;26.50;;;20.30;84.10;;;;;;5081496;28;20464;-72
2022/05/20 00:42:23;;;;;;;29.53;27.67;;;20.30;84.20;;;;;;5082036;28;20541;-72
2022/05/20 00:44:50;;;;;;;29.50;27.13;;;20.20;84.50;;;;;;5080539;28;20462;-72
2022/05/20 00:47:18;;;;;;;27.70;26.10;;;20.20;84.70;;;;;;5080229;28;20459;-74
2022/05/20 00:49:49;;;;;;;29.03;27.00;;;20.20;84.60;;;;;;5078175;28;20835;-76
2022/05/20 00:52:22;;;;;;;28.57;26.20;;;20.20;84.60;;;;;;5083087;28;20458;-74
2022/05/20 00:54:52;;;;;;;28.33;26.53;;;20.10;85.00;;;;;;5083200;28;20474;-73
2022/05/20 00:57:23;;;;;;;28.50;26.70;;;20.00;85.10;;;;;;5081187;28;20462;-74
2022/05/20 00:59:54;;;;;;;29.63;27.70;;;20.00;85.40;;;;;;5078057;28;20468;-75
2022/05/20 01:02:25;;;;;;;28.23;26.03;;;20.00;85.50;;;;;;5082278;28;20469;-73
2022/05/20 01:04:56;;;;;;;28.27;26.30;;;20.00;85.60;;;;;;5075898;28;21002;-74
2022/05/20 01:07:25;;;;;;;27.90;26.00;;;19.90;85.70;;;;;;5077429;28;20471;-75
2022/05/20 01:09:52;;;;;;;28.60;26.60;;;19.90;86.00;;;;;;5077046;28;20850;-76
2022/05/20 01:12:20;;;;;;;29.07;27.17;;;19.80;86.40;;;;;;5074569;28;20565;-75
2022/05/20 01:14:48;;;;;;;27.43;25.63;;;19.70;86.60;;;;;;5079478;28;20783;-73
2022/05/20 01:17:16;;;;;;;27.70;25.83;;;19.70;86.70;;;;;;5088285;28;20453;-73
2022/05/20 01:19:47;;;;;;;26.90;25.30;;;19.70;86.50;;;;;;5083629;28;20821;-72
2022/05/20 01:22:27;;;;;;;27.53;25.83;;;19.70;86.50;;;;;;5077911;28;20552;-72
2022/05/20 01:24:56;;;;;;;28.30;26.30;;;19.70;86.40;;;;;;5090429;28;20479;-72
2022/05/20 01:27:22;;;;;;;27.93;26.10;;;19.60;86.70;;;;;;5084217;28;20453;-72
2022/05/20 01:29:49;;;;;;;28.20;26.20;;;19.60;86.90;;;;;;5080709;28;20910;-72
2022/05/20 01:32:16;;;;;;;28.30;26.40;;;19.50;87.10;;;;;;5092218;28;21747;-72
2022/05/20 01:34:43;;;;;;;28.50;26.53;;;19.60;87.00;;;;;;5076362;28;20504;-72
2022/05/20 01:37:10;;;;;;;28.30;26.50;;;19.60;86.80;;;;;;5079459;28;20467;-72
2022/05/20 01:39:37;;;;;;;27.43;25.73;;;19.50;87.20;;;;;;5076773;28;20445;-73
2022/05/20 01:42:11;;;;;;;28.50;26.50;;;19.40;87.60;;;;;;5094024;28;21005;-72
2022/05/20 01:44:42;;;;;;;28.93;26.80;;;19.40;87.50;;;;;;5098138;28;20492;-73
2022/05/20 01:47:15;;;;;;;27.37;25.77;;;19.30;87.80;;;;;;5086054;28;20541;-72
2022/05/20 01:49:48;;;;;;;29.00;27.10;;;19.30;87.70;;;;;;5081129;28;20826;-72
2022/05/20 01:52:22;;;;;;;27.60;26.10;;;19.20;88.10;;;;;;5082959;28;20464;-72
2022/05/20 01:54:58;;;;;;;28.37;26.67;;;19.20;88.30;;;;;;5080262;28;20496;-72
2022/05/20 01:57:31;;;;;;;28.80;27.03;;;19.10;88.40;;;;;;5071468;28;20458;-72
2022/05/20 02:00:05;;;;;;;28.40;26.33;;;19.20;87.90;;;;;;5083028;28;20449;-73
2022/05/20 02:02:38;;;;;;;27.93;26.10;;;19.30;87.80;;;;;;5088729;28;20540;-72
2022/05/20 02:05:10;;;;;;;27.77;25.87;;;19.20;88.00;;;;;;5082635;28;20481;-72
2022/05/20 02:07:41;;;;;;;28.23;26.30;;;19.20;87.80;;;;;;5078004;28;20462;-73
2022/05/20 02:10:12;;;;;;;28.23;26.53;;;19.20;87.70;;;;;;5084844;28;20457;-72
2022/05/20 02:12:46;;;;;;;27.87;25.53;;;19.30;87.70;;;;;;5088396;28;20565;-72
2022/05/20 02:15:19;;;;;;;27.03;25.30;;;19.20;87.60;;;;;;5079711;28;20477;-72
2022/05/20 02:17:51;;;;;;;28.53;26.70;;;19.20;87.90;;;;;;5079537;28;20969;-73
2022/05/20 02:20:23;;;;;;;25.80;24.30;;;19.20;87.90;;;;;;5085971;28;20452;-72
2022/05/20 02:22:56;;;;;;;28.87;26.87;;;19.20;87.90;;;;;;5086835;28;20460;-73
2022/05/20 02:25:32;;;;;;;27.37;25.73;;;19.10;88.00;;;;;;5086342;28;20493;-72
2022/05/20 02:28:04;;;;;;;29.43;27.43;;;19.10;87.90;;;;;;5072819;28;20458;-72
2022/05/20 02:30:34;;;;;;;29.03;27.23;;;19.20;87.90;;;;;;5075710;28;21087;-73
2022/05/20 02:33:06;;;;;;;29.93;27.93;;;19.10;88.20;;;;;;5081191;28;20457;-73
2022/05/20 02:35:34;;;;;;;27.50;25.80;;;19.10;88.20;;;;;;5084225;28;20466;-71
2022/05/20 02:38:07;;;;;;;27.30;25.50;;;19.00;88.40;;;;;;5079870;28;20463;-72
2022/05/20 02:40:34;;;;;;;27.10;25.40;;;19.10;88.20;;;;;;5085848;28;20453;-73
2022/05/20 02:43:03;;;;;;;28.73;26.63;;;19.10;88.20;;;;;;5078462;28;20981;-73
2022/05/20 02:45:30;;;;;;;27.70;26.00;;;19.10;88.00;;;;;;5072915;28;20554;-72
2022/05/20 02:47:57;;;;;;;27.27;25.53;;;19.00;88.30;;;;;;5079847;28;20454;-73
2022/05/20 02:50:24;;;;;;;28.17;26.30;;;19.00;88.30;;;;;;5084721;28;20838;-72
2022/05/20 02:52:51;;;;;;;28.33;26.53;;;19.10;88.20;;;;;;5081438;28;20454;-73
2022/05/20 02:55:18;;;;;;;29.30;27.00;;;19.00;88.30;;;;;;5081603;28;20477;-72
2022/05/20 02:57:46;;;;;;;28.57;26.50;;;19.10;88.30;;;;;;5088547;28;20533;-73
2022/05/20 03:05:45;;;;;;;29.10;27.20;;;19.10;88.00;;;;;;5083266;28;20472;-72
2022/05/20 03:08:12;;;;;;;29.10;26.63;;;19.10;87.90;;;;;;5084665;28;20468;-71
2022/05/20 03:10:39;;;;;;;28.43;26.63;;;19.10;87.80;;;;;;5073985;28;20449;-72
2022/05/20 03:13:07;;;;;;;28.10;26.27;;;19.20;87.70;;;;;;5071949;28;20461;-72
2022/05/20 03:15:37;;;;;;;27.60;25.80;;;19.20;87.60;;;;;;5083092;28;20485;-72
2022/05/20 03:18:05;;;;;;;27.10;25.50;;;19.20;87.50;;;;;;5082242;28;20454;-72
2022/05/20 03:20:32;;;;;;;30.07;28.13;;;19.20;87.30;;;;;;5077467;28;20472;-72
2022/05/20 03:22:59;;;;;;;29.10;26.90;;;19.20;87.30;;;;;;5069706;28;20455;-72
2022/05/20 03:25:26;;;;;;;28.40;26.47;;;19.20;87.40;;;;;;5081154;28;20484;-72
2022/05/20 03:27:53;;;;;;;28.40;26.40;;;19.20;87.30;;;;;;5076203;28;20893;-73
2022/05/20 03:30:20;;;;;;;34.97;32.67;;;19.20;87.30;;;;;;5076558;28;20462;-72
2022/05/20 03:32:49;;;;;;;31.27;28.90;;;19.20;87.30;;;;;;5081200;28;20461;-72
2022/05/20 03:35:16;;;;;;;29.37;27.67;;;19.30;87.20;;;;;;5074159;28;20478;-72
2022/05/20 03:37:43;;;;;;;28.30;26.60;;;19.30;87.20;;;;;;5074732;28;20465;-73
2022/05/20 03:40:11;;;;;;;30.80;28.57;;;19.20;87.20;;;;;;5082010;28;21077;-72
2022/05/20 03:42:38;;;;;;;29.80;28.00;;;19.30;87.20;;;;;;5075285;28;20554;-72
2022/05/20 03:45:06;;;;;;;28.87;27.07;;;19.20;87.30;;;;;;5084296;28;20478;-72
2022/05/20 03:47:32;;;;;;;30.20;28.30;;;19.30;87.10;;;;;;5078675;28;20461;-73
2022/05/20 03:50:01;;;;;;;29.50;27.50;;;19.30;86.80;;;;;;5088610;28;20974;-72
2022/05/20 03:52:28;;;;;;;28.50;26.70;;;19.40;86.60;;;;;;5085726;28;20859;-72
2022/05/20 03:54:55;;;;;;;29.20;27.23;;;19.40;86.40;;;;;;5081798;28;20480;-72
2022/05/20 03:57:22;;;;;;;29.83;27.67;;;19.50;86.10;;;;;;5078934;28;20457;-72
2022/05/20 03:59:48;;;;;;;30.10;28.10;;;19.60;85.80;;;;;;5083828;28;20555;-73
2022/05/20 04:02:14;;;;;;;28.70;26.90;;;19.60;85.60;;;;;;5077809;28;20825;-72
2022/05/20 04:04:44;;;;;;;30.13;28.13;;;19.70;85.30;;;;;;5078033;28;20470;-72
2022/05/20 04:07:15;;;;;;;29.37;27.37;;;19.70;85.50;;;;;;5075648;28;20745;-72
2022/05/20 04:09:42;;;;;;;28.13;26.43;;;19.70;85.20;;;;;;5080595;28;20465;-71
2022/05/20 04:12:22;;;;;;;30.13;27.97;;;19.80;84.70;;;;;;5070495;28;20462;-72
2022/05/20 04:14:49;;;;;;;30.23;28.33;;;19.80;84.50;;;;;;5075463;28;20486;-72
2022/05/20 04:17:16;;;;;;;29.93;28.00;;;19.90;84.40;;;;;;5080764;28;20470;-72
2022/05/20 04:19:43;;;;;;;29.30;27.60;;;19.90;84.10;;;;;;5086598;28;20464;-72
2022/05/20 04:22:12;;;;;;;31.10;29.10;;;19.90;83.90;;;;;;5086740;28;20460;-72
2022/05/20 04:24:40;;;;;;;32.00;30.10;;;20.00;83.40;;;;;;5081478;28;20474;-72
2022/05/20 04:27:07;;;;;;;31.40;29.50;;;20.00;83.50;;;;;;5086140;28;20463;-72
2022/05/20 04:29:34;;;;;;;34.27;31.80;;;20.10;83.00;;;;;;5073940;28;20465;-72
2022/05/20 04:32:02;;;;;;;29.70;27.70;;;20.20;82.40;;;;;;5083007;28;20461;-72
2022/05/20 04:34:28;;;;;;;31.37;29.27;;;20.10;82.50;;;;;;5079493;28;20478;-72
2022/05/20 04:36:55;;;;;;;31.17;29.17;;;20.20;82.40;;;;;;5069064;28;20470;-72
2022/05/20 04:39:22;;;;;;;29.17;27.27;;;20.20;82.20;;;;;;5069623;28;20462;-72
2022/05/20 04:47:24;;;;;;;29.43;27.53;;;20.30;81.50;;;;;;5067913;28;20504;-71
2022/05/20 04:49:51;;;;;;;31.00;29.10;;;20.40;81.50;;;;;;5079248;28;20583;-72
2022/05/20 04:52:19;;;;;;;30.30;28.20;;;20.50;81.00;;;;;;5071015;28;20463;-73
2022/05/20 04:54:51;;;;;;;31.13;29.13;;;20.60;80.60;;;;;;5081770;28;20481;-72
2022/05/20 04:57:25;;;;;;;30.77;28.57;;;20.70;80.10;;;;;;5090753;28;21041;-72
2022/05/20 04:59:54;;;;;;;32.60;30.70;;;20.80;79.70;;;;;;5093182;28;20949;-71
2022/05/20 05:02:21;;;;;;;31.80;29.90;;;20.90;79.30;;;;;;5085331;28;20480;-70
2022/05/20 05:04:48;;;;;;;30.37;28.37;;;20.90;79.10;;;;;;5081609;28;21006;-71
2022/05/20 05:07:16;;;;;;;30.73;28.73;;;21.00;78.70;;;;;;5085220;28;20467;-72
2022/05/20 05:09:43;;;;;;;33.03;31.10;;;21.10;78.00;;;;;;5076497;28;20456;-75
2022/05/20 05:12:12;;;;;;;28.58;26.60;;;21.30;77.50;;;;;;5077972;28;21004;-74
2022/05/20 05:14:43;;;;;;;32.10;29.80;;;21.40;77.00;;;;;;5082838;28;20266;-73
2022/05/20 05:17:11;;;;;;;34.00;31.90;;;21.50;76.30;;;;;;5079479;28;20461;-74
2022/05/20 05:19:41;;;;;;;30.70;28.90;;;21.60;76.20;;;;;;5079767;28;20465;-74
2022/05/20 05:22:09;;;;;;;31.27;29.37;;;21.70;75.80;;;;;;5083259;28;20465;-75
2022/05/20 05:24:37;;;;;;;34.57;32.07;;;22.00;75.20;;;;;;5079094;28;20474;-79
2022/05/20 05:27:13;;;;;;;30.80;29.00;;;22.10;74.60;;;;;;5075448;28;20463;-79
2022/05/20 05:29:51;;;;;;;31.93;29.73;;;22.30;73.60;;;;;;5091413;28;20483;-79
2022/05/20 05:32:24;;;;;;;33.40;31.03;;;22.40;73.40;;;;;;5077934;28;20484;-77
2022/05/20 05:35:04;;;;;;;32.63;30.27;;;22.50;72.90;;;;;;5080857;28;20478;-79
2022/05/20 05:37:33;;;;;;;31.93;30.03;;;22.60;72.40;;;;;;5090740;28;20992;-78
2022/05/20 05:40:00;;;;;;;32.83;30.37;;;22.70;71.70;;;;;;5090629;28;20458;-78
2022/05/20 05:42:29;;;;;;;33.87;31.77;;;22.90;71.60;;;;;;5092285;28;20461;-77
2022/05/20 05:44:58;;;;;;;32.70;30.80;;;23.00;71.40;;;;;;5086005;28;20475;-82
2022/05/20 05:47:25;;;;;;;33.90;31.90;;;23.20;70.30;;;;;;5092868;28;20555;-81
2022/05/20 05:49:52;;;;;;;34.53;32.30;;;23.30;70.40;;;;;;5081501;28;20522;-77
2022/05/20 05:52:19;;;;;;;32.73;30.70;;;23.50;69.60;;;;;;5087833;28;20573;-78
2022/05/20 05:54:46;;;;;;;33.57;31.37;;;23.60;69.20;;;;;;5081731;28;20965;-80
2022/05/20 05:57:13;;;;;;;32.30;30.30;;;23.70;69.10;;;;;;5099367;28;20534;-80
2022/05/20 05:59:40;;;;;;;33.60;31.60;;;23.60;69.10;;;;;;5092961;28;20463;-78
2022/05/20 06:02:09;;;;;;;33.40;31.30;;;23.70;68.90;;;;;;5088780;28;20459;-79
2022/05/20 06:04:36;;;;;;;32.37;30.40;;;23.70;68.90;;;;;;5080909;28;20473;-81
2022/05/20 06:07:05;;;;;;;32.70;30.80;;;23.90;68.50;;;;;;5088955;28;20485;-81
2022/05/20 06:09:32;;;;;;;33.30;30.87;;;24.00;68.10;;;;;;5092482;28;20542;-82
2022/05/20 06:12:01;;;;;;;33.80;31.73;;;24.00;68.30;;;;;;5080365;28;20462;-79
2022/05/20 06:14:28;;;;;;;34.47;32.07;;;24.00;68.40;;;;;;5090893;28;20811;-79
2022/05/20 06:16:55;;;;;;;33.57;31.57;;;24.10;68.40;;;;;;5091449;28;20852;-78
2022/05/20 06:19:24;;;;;;;33.30;31.00;;;24.10;68.50;;;;;;5084233;28;20494;-78
2022/05/20 06:21:51;;;;;;;34.20;31.97;;;24.20;68.30;;;;;;5085908;28;20458;-79
2022/05/20 06:24:18;;;;;;;32.90;30.80;;;24.30;68.30;;;;;;5073803;28;21093;-78
2022/05/20 06:26:46;;;;;;;33.73;31.60;;;24.40;67.90;;;;;;5087888;28;20495;-78
2022/05/20 06:29:14;;;;;;;38.00;35.60;;;24.60;67.50;;;;;;5083467;28;20868;-79
2022/05/20 06:31:42;;;;;;;33.70;31.70;;;24.70;67.10;;;;;;5087611;28;20454;-78
2022/05/20 06:34:08;;;;;;;34.50;32.20;;;24.80;66.20;;;;;;5090377;28;20466;-77
2022/05/20 06:42:06;;;;;;;33.20;31.30;;;25.00;64.60;;;;;;5085793;28;20452;-78
2022/05/20 06:44:33;;;;;;;35.90;33.80;;;25.20;64.40;;;;;;5084977;28;20488;-80
2022/05/20 06:47:00;;;;;;;34.20;32.20;;;25.30;64.20;;;;;;5086447;28;20467;-78
2022/05/20 06:49:27;;;;;;;36.20;34.00;;;25.30;63.50;;;;;;5082743;28;20462;-73
2022/05/20 06:51:56;;;;;;;33.93;31.73;;;25.30;63.30;;;;;;5086023;28;20545;-75
2022/05/20 06:54:24;;;;;;;32.57;30.47;;;25.40;63.20;;;;;;5086355;28;20547;-75
2022/05/20 06:56:51;;;;;;;33.93;31.83;;;25.50;63.30;;;;;;5086257;28;21026;-75
2022/05/20 06:59:18;;;;;;;34.50;32.40;;;25.70;63.00;;;;;;5091817;28;20941;-78
2022/05/20 07:01:45;;;;;;;34.43;32.27;;;25.80;62.40;;;;;;5083777;28;20459;-76
2022/05/20 07:04:12;;;;;;;37.40;35.10;;;25.90;62.30;;;;;;5080892;28;20452;-76
2022/05/20 07:06:39;;;;;;;36.13;33.40;;;26.00;62.40;;;;;;5075225;28;20453;-73
2022/05/20 07:09:07;;;;;;;36.30;34.00;;;26.10;62.10;;;;;;5085117;28;20474;-75
2022/05/20 07:11:35;;;;;;;35.67;33.47;;;26.10;62.00;;;;;;5085631;28;20547;-73
2022/05/20 07:14:02;;;;;;;34.87;32.57;;;26.20;62.10;;;;;;5087187;28;20488;-74
2022/05/20 07:16:31;;;;;;;34.90;32.83;;;26.20;62.10;;;;;;5078206;28;20592;-74
2022/05/20 07:18:58;;;;;;;35.63;33.33;;;26.30;61.80;;;;;;5087979;28;20985;-74
2022/05/20 07:21:25;;;;;;;38.97;36.37;;;26.40;61.40;;;;;;5083509;28;20461;-76
2022/05/20 07:23:52;;;;;;;35.50;33.40;;;26.40;61.20;;;;;;5086951;28;20461;-73
2022/05/20 07:26:20;;;;;;;36.60;34.20;;;26.60;60.80;;;;;;5079628;28;20466;-74
2022/05/20 07:28:47;;;;;;;36.13;33.93;;;26.70;60.90;;;;;;5084111;28;20464;-74
2022/05/20 07:31:15;;;;;;;35.17;33.17;;;26.80;60.50;;;;;;5084231;28;21004;-74
2022/05/20 07:33:43;;;;;;;35.50;33.40;;;26.80;60.70;;;;;;5080675;28;20460;-74
2022/05/20 07:36:10;;;;;;;36.77;34.37;;;26.80;60.60;;;;;;5086732;28;20486;-74
2022/05/20 07:38:37;;;;;;;33.83;31.73;;;26.90;60.40;;;;;;5087133;28;20457;-73
2022/05/20 07:41:04;;;;;;;34.20;32.07;;;27.00;60.00;;;;;;5083650;28;21371;-74
2022/05/20 07:43:32;;;;;;;37.17;34.97;;;27.00;59.60;;;;;;5076020;28;20549;-75
2022/05/20 07:46:00;;;;;;;35.50;33.17;;;27.20;59.50;;;;;;5083986;28;20473;-74
2022/05/20 07:48:26;;;;;;;37.13;34.83;;;27.20;59.40;;;;;;5095239;28;20469;-72
2022/05/20 07:50:58;;;;;;;37.13;34.93;;;27.30;59.20;;;;;;5085845;28;20450;-72
2022/05/20 07:53:33;;;;;;;36.17;33.83;;;27.40;59.20;;;;;;5083563;28;20456;-72
2022/05/20 07:56:03;;;;;;;34.23;32.00;;;27.50;58.90;;;;;;5091048;28;20473;-72
2022/05/20 07:58:36;;;;;;;34.70;32.40;;;27.60;58.30;;;;;;5088914;28;21863;-72
2022/05/20 08:01:04;;;;;;;37.10;34.93;;;27.60;57.90;;;;;;5085482;28;20472;-71
2022/05/20 08:06:19;;;;;;;36.30;34.00;;;27.90;57.40;;;;;;5086354;28;20494;-72
2022/05/20 08:08:45;;;;;;;35.30;32.83;;;27.90;57.10;;;;;;5084830;28;20465;-72
2022/05/20 08:11:12;;;;;;;39.23;36.50;;;28.10;56.80;;;;;;5077817;28;20456;-72
2022/05/20 08:13:41;;;;;;;38.67;36.03;;;28.10;56.90;;;;;;5100342;28;20462;-72
2022/05/20 08:16:08;;;;;;;36.80;34.40;;;28.10;56.20;;;;;;5097683;28;20490;-73
2022/05/20 08:18:35;;;;;;;39.43;37.00;;;28.10;56.20;;;;;;5086709;28;20465;-73
2022/05/20 08:21:01;;;;;;;37.27;34.87;;;28.20;56.20;;;;;;5084960;28;20561;-74
2022/05/20 08:23:28;;;;;;;39.43;36.97;;;28.20;56.10;;;;;;5087996;28;20467;-76
2022/05/20 08:25:55;;;;;;;36.63;34.33;;;28.30;55.60;;;;;;5074598;28;20939;-76
2022/05/20 08:28:23;;;;;;;34.87;32.67;;;28.50;55.00;;;;;;5071336;28;20793;-74
2022/05/20 08:30:51;;;;;;;37.53;34.57;;;28.50;54.70;;;;;;5078818;28;21438;-76
2022/05/20 08:33:18;;;;;;;39.30;36.80;;;28.60;54.40;;;;;;5093881;28;20967;-75
2022/05/20 08:35:45;;;;;;;38.20;35.30;;;28.70;54.70;;;;;;5072416;28;20848;-75
2022/05/20 08:38:12;;;;;;;39.03;36.50;;;28.80;54.30;;;;;;5080577;28;20460;-78
2022/05/20 08:40:43;;;;;;;36.77;34.30;;;28.80;54.10;;;;;;5078260;28;20480;-75
2022/05/20 08:43:11;;;;;;;38.23;35.93;;;28.90;54.00;;;;;;5084750;28;21014;-77
2022/05/20 08:45:39;;;;;;;37.27;34.73;;;28.90;53.90;;;;;;5081222;28;20475;-74
2022/05/20 08:48:10;;;;;;;38.83;36.53;;;29.00;53.60;;;;;;5086511;28;20547;-76
2022/05/20 08:50:41;;;;;;;40.40;37.90;;;29.00;53.60;;;;;;5080461;28;20463;-75
2022/05/20 08:53:23;;;;;;;35.40;32.87;;;29.10;53.80;;;;;;5081789;28;20493;-76
2022/05/20 08:55:50;;;;;;;39.90;37.20;;;29.20;53.70;;;;;;5080810;28;21125;-77
2022/05/20 08:58:19;;;;;;;39.27;36.47;;;29.30;54.00;;;;;;5083564;28;20461;-74
2022/05/20 09:00:46;;;;;;;38.93;36.43;;;29.40;53.40;;;;;;5085543;28;20457;-75
2022/05/20 09:03:16;;;;;;;38.87;36.27;;;29.50;53.20;;;;;;5074174;28;20466;-75
2022/05/20 09:05:45;;;;;;;36.17;33.73;;;29.60;52.80;;;;;;5074492;28;20492;-75
2022/05/20 09:08:24;;;;;;;34.90;32.70;;;29.70;52.00;;;;;;5082273;28;20839;-76
2022/05/20 09:10:54;;;;;;;35.10;32.77;;;29.70;51.00;;;;;;5086835;28;20452;-76
2022/05/20 09:13:23;;;;;;;35.43;32.90;;;29.70;50.80;;;;;;5075003;28;21004;-74
2022/05/20 09:16:05;;;;;;;41.10;38.70;;;29.80;50.10;;;;;;5067913;28;20485;-73
2022/05/20 09:18:39;;;;;;;40.57;37.67;;;29.90;50.00;;;;;;5084089;28;20957;-74
2022/05/20 09:21:07;;;;;;;35.33;32.73;;;30.00;50.20;;;;;;5084439;28;20453;-75
2022/05/20 09:23:49;;;;;;;39.30;36.33;;;30.20;50.20;;;;;;5073896;28;20462;-73
2022/05/20 09:26:24;;;;;;;34.50;32.30;;;30.30;50.10;;;;;;5080249;28;20836;-73
2022/05/20 09:28:54;;;;;;;36.07;33.77;;;30.30;49.70;;;;;;5075077;28;20489;-73
2022/05/20 09:31:29;;;;;;;34.50;32.20;;;30.20;49.10;;;;;;5072118;28;20449;-71
2022/05/20 09:34:10;;;;;;;35.80;33.50;;;30.20;49.70;;;;;;5080852;28;20545;-71
2022/05/20 09:36:48;;;;;;;38.47;35.97;;;30.20;49.20;;;;;;5077830;28;20478;-71
2022/05/20 09:39:17;;;;;;;36.43;33.77;;;30.20;49.70;;;;;;5081402;28;20540;-72
2022/05/20 09:41:51;;;;;;;36.40;33.70;;;30.30;49.60;;;;;;5080204;28;20461;-73
2022/05/20 09:44:23;;;;;;;39.27;36.57;;;30.30;49.00;;;;;;5073432;28;20484;-76
2022/05/20 09:46:54;;;;;;;35.47;33.07;;;30.30;49.30;;;;;;5080677;28;20476;-77
2022/05/20 09:49:37;;;;;;;38.50;36.00;;;30.20;49.50;;;;;;5083506;28;20441;-76
2022/05/20 09:52:17;;;;;;;36.53;34.13;;;30.10;49.20;;;;;;5087655;28;20460;-75
2022/05/20 09:54:47;;;;;;;36.20;33.70;;;30.20;49.50;;;;;;5085927;28;21076;-76
2022/05/20 09:57:22;;;;;;;38.27;35.77;;;30.20;49.20;;;;;;5089432;28;20477;-75
2022/05/20 09:59:54;;;;;;;37.00;34.60;;;30.30;49.20;;;;;;5084375;28;20467;-78
2022/05/20 10:02:26;;;;;;;38.30;35.60;;;30.40;48.90;;;;;;5087836;28;20453;-73
2022/05/20 10:05:03;;;;;;;38.43;35.83;;;30.50;49.10;;;;;;5079187;28;20891;-77
2022/05/20 10:07:47;;;;;;;39.40;36.60;;;30.60;49.10;;;;;;5088719;28;20464;-76
2022/05/20 10:10:28;;;;;;;40.30;37.40;;;30.60;48.80;;;;;;5081900;28;20513;-76
2022/05/20 10:12:58;;;;;;;36.50;34.10;;;30.60;48.20;;;;;;5072730;28;20493;-75
2022/05/20 10:15:29;;;;;;;36.60;34.17;;;30.60;48.20;;;;;;5084392;28;20484;-75
2022/05/20 10:18:08;;;;;;;40.40;37.27;;;30.50;48.70;;;;;;5087871;28;20469;-75
2022/05/20 10:20:45;;;;;;;39.00;36.37;;;30.60;49.10;;;;;;5081468;28;20886;-76
2022/05/20 10:23:19;;;;;;;39.50;37.13;;;30.60;49.10;;;;;;5084908;28;20453;-77
2022/05/20 10:25:52;;;;;;;37.00;34.70;;;30.70;49.00;;;;;;5084550;28;20994;-77
2022/05/20 10:34:09;;;;;;;38.03;35.63;;;30.80;46.90;;;;;;5074266;28;20501;-76
2022/05/20 10:36:51;;;;;;;39.30;36.13;;;30.90;46.10;;;;;;5084241;28;21014;-74
2022/05/20 10:39:30;;;;;;;37.53;34.93;;;31.00;45.80;;;;;;5084397;28;20464;-74
2022/05/20 10:42:13;;;;;;;38.40;35.97;;;31.20;44.50;;;;;;5086511;28;20562;-75
2022/05/20 10:50:56;;;;;;;39.70;37.17;;;31.20;42.60;;;;;;5090491;28;20448;-73
2022/05/20 10:53:35;;;;;;;41.07;38.47;;;31.30;43.10;;;;;;5074499;28;20454;-73
2022/05/20 10:56:20;;;;;;;40.47;37.97;;;31.40;42.60;;;;;;5097085;28;20484;-73
2022/05/20 10:59:04;;;;;;;38.20;35.67;;;31.50;42.70;;;;;;5081527;28;20975;-73
2022/05/20 11:01:48;;;;;;;35.87;33.23;;;31.40;41.90;;;;;;5087004;28;20457;-72
2022/05/20 11:04:39;;;;;;;36.83;34.00;;;31.30;42.50;;;;;;5084716;28;20497;-73
2022/05/20 11:07:31;;;;;;;39.47;36.80;;;31.50;42.70;;;;;;5072127;28;20451;-75
2022/05/20 11:10:12;;;;;;;36.93;34.43;;;31.60;42.30;;;;;;5079010;28;20466;-79
2022/05/20 11:12:49;;;;;;;37.20;34.70;;;31.70;42.60;;;;;;5076852;28;20932;-74
2022/05/20 11:15:32;;;;;;;40.30;37.83;;;31.80;42.70;;;;;;5069746;28;20482;-76
2022/05/20 11:18:17;;;;;;;39.37;36.67;;;32.00;42.50;;;;;;5094110;28;20487;-77
2022/05/20 11:21:16;;;;;;;39.43;36.90;;;32.20;42.20;;;;;;5085386;28;20461;-75
2022/05/20 11:24:12;;;;;;;38.17;35.47;;;32.40;42.60;;;;;;5085440;28;20458;-73
2022/05/20 11:27:19;;;;;;;39.17;36.13;;;32.60;41.30;;;;;;5066730;28;20455;-73
2022/05/20 11:30:13;;;;;;;41.77;39.27;;;32.50;40.30;;;;;;5073020;28;20454;-73
2022/05/20 11:33:11;;;;;;;39.40;36.53;;;32.10;40.80;;;;;;5085551;28;20470;-76
2022/05/20 11:36:08;;;;;;;38.07;35.60;;;32.10;41.80;;;;;;5075756;28;20468;-73
2022/05/20 11:39:04;;;;;;;37.60;35.00;;;32.30;42.00;;;;;;5077405;28;20458;-77
2022/05/20 11:41:42;;;;;;;40.37;37.77;;;32.40;41.90;;;;;;5078614;28;20579;-79
2022/05/20 11:44:43;;;;;;;34.80;32.50;;;32.40;43.20;;;;;;5073476;28;20453;-78
2022/05/20 11:47:32;;;;;;;39.17;36.47;;;32.40;42.00;;;;;;5051853;28;21061;-79
2022/05/20 11:50:20;;;;;;;36.20;33.83;;;32.40;41.00;;;;;;5079618;28;20450;-78
2022/05/20 11:52:57;;;;;;;35.27;32.87;;;32.60;41.70;;;;;;5081117;28;20457;-79
2022/05/20 11:55:28;;;;;;;35.30;32.70;;;32.70;41.60;;;;;;5077682;28;20470;-79
2022/05/20 11:58:06;;;;;;;34.27;31.97;;;32.60;42.60;;;;;;5075061;28;20474;-79
2022/05/20 12:00:41;;;;;;;37.70;35.10;;;32.70;42.30;;;;;;5080420;28;20462;-80
2022/05/20 12:03:13;;;;;;;35.37;33.27;;;32.60;44.00;;;;;;5077542;28;20505;-78
2022/05/20 12:05:43;;;;;;;41.43;38.83;;;32.80;42.30;;;;;;5077798;28;20477;-78
2022/05/20 12:08:48;;;;;;;36.83;34.17;;;33.00;42.20;;;;;;5067789;28;20472;-77
2022/05/20 12:11:31;;;;;;;36.67;34.37;;;33.10;41.40;;;;;;5073979;28;20463;-77
2022/05/20 12:14:01;;;;;;;39.93;37.20;;;33.10;41.40;;;;;;5070244;28;20939;-78
2022/05/20 12:16:30;;;;;;;36.60;34.07;;;33.00;41.10;;;;;;5067800;28;20481;-78
2022/05/20 12:24:38;;;;;;;36.27;33.80;;;32.80;41.90;;;;;;5072144;28;20571;-79
2022/05/20 12:27:12;;;;;;;36.43;33.63;;;32.80;42.30;;;;;;5072895;28;20868;-79
2022/05/20 12:30:02;;;;;;;35.17;32.57;;;32.80;41.70;;;;;;5070352;28;20457;-78
2022/05/20 12:32:54;;;;;;;42.27;38.97;;;32.90;42.10;;;;;;5066335;28;20459;-80
2022/05/20 12:35:31;;;;;;;43.67;40.50;;;33.00;40.80;;;;;;5077708;28;20481;-80
2022/05/20 12:38:24;;;;;;;45.23;40.80;;;33.00;41.60;;;;;;5076522;28;20470;-79
2022/05/20 12:40:59;;;;;;;37.83;35.03;;;33.10;42.20;;;;;;5085431;28;20566;-79
2022/05/20 12:43:58;;;;;;;34.97;32.43;;;33.30;41.00;;;;;;5072949;28;20453;-79
2022/05/20 12:46:58;;;;;;;38.37;35.43;;;33.30;40.50;;;;;;5018466;28;20877;-78
2022/05/20 12:49:31;;;;;;;39.13;36.10;;;33.30;39.70;;;;;;5080547;28;20457;-79
2022/05/20 12:52:09;;;;;;;34.80;32.30;;;33.40;38.70;;;;;;5084470;28;21190;-80
2022/05/20 12:54:40;;;;;;;36.87;34.27;;;33.40;38.90;;;;;;5076692;28;20550;-77
2022/05/20 12:57:10;;;;;;;37.73;34.97;;;33.50;39.00;;;;;;5073771;28;20478;-76
2022/05/20 12:59:37;;;;;;;37.83;35.00;;;33.50;38.50;;;;;;5084544;28;20458;-79
2022/05/20 13:02:09;;;;;;;38.37;35.37;;;33.60;38.70;;;;;;5077925;28;20468;-79
2022/05/20 13:04:42;;;;;;;32.53;30.43;;;33.70;39.20;;;;;;5083953;28;21043;-79
2022/05/20 13:07:16;;;;;;;35.40;32.87;;;33.90;38.40;;;;;;5073361;28;20487;-81
2022/05/20 13:09:43;;;;;;;32.87;30.70;;;34.10;38.20;;;;;;5068809;28;20466;-83
2022/05/20 13:12:18;;;;;;;34.30;32.10;;;34.10;36.70;;;;;;5070634;28;20453;-84
2022/05/20 13:14:46;;;;;;;36.60;34.23;;;34.10;36.30;;;;;;5074009;28;20528;-82
2022/05/20 13:17:14;;;;;;;37.80;35.17;;;33.90;36.80;;;;;;5071848;28;21182;-82
2022/05/20 13:19:49;;;;;;;33.47;31.10;;;33.80;36.00;;;;;;5074899;28;20639;-83
2022/05/20 13:22:21;;;;;;;38.37;35.67;;;33.70;37.30;;;;;;5072213;28;20472;-80
2022/05/20 13:24:54;;;;;;;34.47;32.27;;;33.70;37.90;;;;;;5079242;28;20994;-77
2022/05/20 13:27:22;;;;;;;36.70;34.30;;;33.90;37.10;;;;;;5075967;28;20461;-78
2022/05/20 13:29:51;;;;;;;36.20;33.70;;;34.00;36.50;;;;;;5077203;28;20465;-79